sensor_id;sensor_type;location;lat;lon;timestamp;P1;durP1;ratioP1;P2;durP2;ratioP2
21643;SDS011;10983;51.982;9.226;2023-10-08T00:00:46;2.95;;;2.47;;
21643;SDS011;10983;51.982;9.226;2023-10-08T00:03:16;0.38;;;0.38;;
21643;SDS011;10983;51.982;9.226;2023-10-08T00:05:44;5.22;;;0.98;;
21643;SDS011;10983;51.982;9.226;2023-10-08T00:08:13;3.50;;;2.47;;
21643;SDS011;10983;51.982;9.226;2023-10-08T00:10:43;10.15;;;3.88;;
21643;SDS011;10983;51.982;9.226;2023-10-08T00:13:12;5.93;;;1.67;;
21643;SDS011;10983;51.982;9.226;2023-10-08T00:15:42;4.07;;;2.40;;
21643;SDS011;10983;51.982;9.226;2023-10-08T00:18:21;2.00;;;1.88;;
21643;SDS011;10983;51.982;9.226;2023-10-08T00:20:50;4.22;;;3.67;;
21643;SDS011;10983;51.982;9.226;2023-10-08T00:23:25;13.93;;;4.28;;
21643;SDS011;10983;51.982;9.226;2023-10-08T00:25:53;1.10;;;1.05;;
21643;SDS011;10983;51.982;9.226;2023-10-08T00:28:21;4.10;;;3.13;;
21643;SDS011;10983;51.982;9.226;2023-10-08T00:30:48;2.00;;;1.48;;
21643;SDS011;10983;51.982;9.226;2023-10-08T00:33:16;2.63;;;2.47;;
21643;SDS011;10983;51.982;9.226;2023-10-08T00:35:46;5.55;;;3.50;;
21643;SDS011;10983;51.982;9.226;2023-10-08T00:38:14;2.70;;;2.05;;
21643;SDS011;10983;51.982;9.226;2023-10-08T00:40:46;18.00;;;5.38;;
21643;SDS011;10983;51.982;9.226;2023-10-08T00:43:30;0.73;;;0.63;;
21643;SDS011;10983;51.982;9.226;2023-10-08T00:45:59;3.60;;;3.00;;
21643;SDS011;10983;51.982;9.226;2023-10-08T00:48:27;11.38;;;4.35;;
21643;SDS011;10983;51.982;9.226;2023-10-08T00:51:03;17.15;;;4.95;;
21643;SDS011;10983;51.982;9.226;2023-10-08T00:53:50;3.08;;;2.60;;
21643;SDS011;10983;51.982;9.226;2023-10-08T00:56:24;6.50;;;4.78;;
21643;SDS011;10983;51.982;9.226;2023-10-08T00:59:10;10.95;;;4.22;;
21643;SDS011;10983;51.982;9.226;2023-10-08T01:01:40;4.28;;;2.50;;
21643;SDS011;10983;51.982;9.226;2023-10-08T01:04:15;2.60;;;1.65;;
21643;SDS011;10983;51.982;9.226;2023-10-08T01:06:44;0.82;;;0.40;;
21643;SDS011;10983;51.982;9.226;2023-10-08T01:09:15;0.10;;;0.10;;
21643;SDS011;10983;51.982;9.226;2023-10-08T01:11:50;1.02;;;0.28;;
21643;SDS011;10983;51.982;9.226;2023-10-08T01:14:45;0.00;;;0.00;;
21643;SDS011;10983;51.982;9.226;2023-10-08T01:17:15;0.00;;;0.00;;
21643;SDS011;10983;51.982;9.226;2023-10-08T01:19:45;0.00;;;0.00;;
21643;SDS011;10983;51.982;9.226;2023-10-08T01:22:18;0.77;;;0.40;;
21643;SDS011;10983;51.982;9.226;2023-10-08T01:24:48;0.22;;;0.22;;
21643;SDS011;10983;51.982;9.226;2023-10-08T01:27:16;0.00;;;0.00;;
21643;SDS011;10983;51.982;9.226;2023-10-08T01:29:48;0.00;;;0.00;;
21643;SDS011;10983;51.982;9.226;2023-10-08T01:32:17;0.00;;;0.00;;
21643;SDS011;10983;51.982;9.226;2023-10-08T01:34:47;0.00;;;0.00;;
21643;SDS011;10983;51.982;9.226;2023-10-08T01:37:16;0.00;;;0.00;;
21643;SDS011;10983;51.982;9.226;2023-10-08T01:39:53;0.00;;;0.00;;
21643;SDS011;10983;51.982;9.226;2023-10-08T01:42:26;0.00;;;0.00;;
21643;SDS011;10983;51.982;9.226;2023-10-08T01:44:55;0.00;;;0.00;;
21643;SDS011;10983;51.982;9.226;2023-10-08T01:47:22;0.00;;;0.00;;
21643;SDS011;10983;51.982;9.226;2023-10-08T01:49:51;0.00;;;0.00;;
21643;SDS011;10983;51.982;9.226;2023-10-08T01:52:24;0.00;;;0.00;;
21643;SDS011;10983;51.982;9.226;2023-10-08T01:54:53;0.00;;;0.00;;
21643;SDS011;10983;51.982;9.226;2023-10-08T01:57:20;0.00;;;0.00;;
21643;SDS011;10983;51.982;9.226;2023-10-08T01:59:48;0.30;;;0.30;;
21643;SDS011;10983;51.982;9.226;2023-10-08T02:02:16;0.00;;;0.00;;
21643;SDS011;10983;51.982;9.226;2023-10-08T02:04:44;0.00;;;0.00;;
21643;SDS011;10983;51.982;9.226;2023-10-08T02:07:11;0.00;;;0.00;;
21643;SDS011;10983;51.982;9.226;2023-10-08T02:09:39;0.00;;;0.00;;
21643;SDS011;10983;51.982;9.226;2023-10-08T02:12:09;0.00;;;0.00;;
21643;SDS011;10983;51.982;9.226;2023-10-08T02:14:40;0.00;;;0.00;;
21643;SDS011;10983;51.982;9.226;2023-10-08T02:17:08;0.00;;;0.00;;
21643;SDS011;10983;51.982;9.226;2023-10-08T02:19:36;0.00;;;0.00;;
21643;SDS011;10983;51.982;9.226;2023-10-08T02:22:04;0.00;;;0.00;;
21643;SDS011;10983;51.982;9.226;2023-10-08T02:24:35;0.00;;;0.00;;
21643;SDS011;10983;51.982;9.226;2023-10-08T02:27:03;0.00;;;0.00;;
21643;SDS011;10983;51.982;9.226;2023-10-08T02:29:33;0.00;;;0.00;;
21643;SDS011;10983;51.982;9.226;2023-10-08T02:32:00;0.00;;;0.00;;
21643;SDS011;10983;51.982;9.226;2023-10-08T02:34:28;0.00;;;0.00;;
21643;SDS011;10983;51.982;9.226;2023-10-08T02:36:56;0.00;;;0.00;;
21643;SDS011;10983;51.982;9.226;2023-10-08T02:39:24;0.00;;;0.00;;
21643;SDS011;10983;51.982;9.226;2023-10-08T02:41:54;0.00;;;0.00;;
21643;SDS011;10983;51.982;9.226;2023-10-08T02:44:25;0.00;;;0.00;;
21643;SDS011;10983;51.982;9.226;2023-10-08T02:46:55;0.00;;;0.00;;
21643;SDS011;10983;51.982;9.226;2023-10-08T02:49:22;0.00;;;0.00;;
21643;SDS011;10983;51.982;9.226;2023-10-08T02:51:51;0.00;;;0.00;;
21643;SDS011;10983;51.982;9.226;2023-10-08T02:54:20;0.00;;;0.00;;
21643;SDS011;10983;51.982;9.226;2023-10-08T02:56:57;0.20;;;0.20;;
21643;SDS011;10983;51.982;9.226;2023-10-08T02:59:29;0.00;;;0.00;;
21643;SDS011;10983;51.982;9.226;2023-10-08T03:02:06;0.00;;;0.00;;
21643;SDS011;10983;51.982;9.226;2023-10-08T03:04:40;0.00;;;0.00;;
21643;SDS011;10983;51.982;9.226;2023-10-08T03:07:12;0.00;;;0.00;;
21643;SDS011;10983;51.982;9.226;2023-10-08T03:09:47;0.00;;;0.00;;
21643;SDS011;10983;51.982;9.226;2023-10-08T03:12:16;0.00;;;0.00;;
21643;SDS011;10983;51.982;9.226;2023-10-08T03:14:44;0.05;;;0.05;;
21643;SDS011;10983;51.982;9.226;2023-10-08T03:17:28;0.00;;;0.00;;
21643;SDS011;10983;51.982;9.226;2023-10-08T03:19:56;0.00;;;0.00;;
21643;SDS011;10983;51.982;9.226;2023-10-08T03:22:44;0.40;;;0.40;;
21643;SDS011;10983;51.982;9.226;2023-10-08T03:25:12;0.77;;;0.30;;
21643;SDS011;10983;51.982;9.226;2023-10-08T03:27:44;0.13;;;0.13;;
21643;SDS011;10983;51.982;9.226;2023-10-08T03:30:14;0.00;;;0.00;;
21643;SDS011;10983;51.982;9.226;2023-10-08T03:32:43;0.20;;;0.20;;
21643;SDS011;10983;51.982;9.226;2023-10-08T03:35:13;0.00;;;0.00;;
21643;SDS011;10983;51.982;9.226;2023-10-08T03:37:43;0.00;;;0.00;;
21643;SDS011;10983;51.982;9.226;2023-10-08T03:40:17;0.00;;;0.00;;
21643;SDS011;10983;51.982;9.226;2023-10-08T03:42:51;0.00;;;0.00;;
21643;SDS011;10983;51.982;9.226;2023-10-08T03:45:22;0.10;;;0.10;;
21643;SDS011;10983;51.982;9.226;2023-10-08T03:48:05;0.00;;;0.00;;
21643;SDS011;10983;51.982;9.226;2023-10-08T03:50:38;0.00;;;0.00;;
21643;SDS011;10983;51.982;9.226;2023-10-08T03:53:09;0.03;;;0.03;;
21643;SDS011;10983;51.982;9.226;2023-10-08T03:55:38;0.00;;;0.00;;
21643;SDS011;10983;51.982;9.226;2023-10-08T03:58:07;0.00;;;0.00;;
21643;SDS011;10983;51.982;9.226;2023-10-08T04:00:42;0.00;;;0.00;;
21643;SDS011;10983;51.982;9.226;2023-10-08T04:03:13;0.00;;;0.00;;
21643;SDS011;10983;51.982;9.226;2023-10-08T04:05:50;0.00;;;0.00;;
21643;SDS011;10983;51.982;9.226;2023-10-08T04:08:29;0.00;;;0.00;;
21643;SDS011;10983;51.982;9.226;2023-10-08T04:11:10;0.00;;;0.00;;
21643;SDS011;10983;51.982;9.226;2023-10-08T04:13:55;0.00;;;0.00;;
21643;SDS011;10983;51.982;9.226;2023-10-08T04:16:26;0.00;;;0.00;;
21643;SDS011;10983;51.982;9.226;2023-10-08T04:18:55;0.00;;;0.00;;
21643;SDS011;10983;51.982;9.226;2023-10-08T04:21:23;0.00;;;0.00;;
21643;SDS011;10983;51.982;9.226;2023-10-08T04:23:54;0.00;;;0.00;;
21643;SDS011;10983;51.982;9.226;2023-10-08T04:26:24;0.73;;;0.73;;
21643;SDS011;10983;51.982;9.226;2023-10-08T04:28:53;0.00;;;0.00;;
21643;SDS011;10983;51.982;9.226;2023-10-08T04:31:24;0.00;;;0.00;;
21643;SDS011;10983;51.982;9.226;2023-10-08T04:33:55;0.00;;;0.00;;
21643;SDS011;10983;51.982;9.226;2023-10-08T04:36:27;0.00;;;0.00;;
21643;SDS011;10983;51.982;9.226;2023-10-08T04:38:55;0.00;;;0.00;;
21643;SDS011;10983;51.982;9.226;2023-10-08T04:41:29;0.00;;;0.00;;
21643;SDS011;10983;51.982;9.226;2023-10-08T04:43:57;0.00;;;0.00;;
21643;SDS011;10983;51.982;9.226;2023-10-08T04:46:29;0.10;;;0.10;;
21643;SDS011;10983;51.982;9.226;2023-10-08T04:49:15;0.00;;;0.00;;
21643;SDS011;10983;51.982;9.226;2023-10-08T04:51:54;0.00;;;0.00;;
21643;SDS011;10983;51.982;9.226;2023-10-08T04:54:24;0.00;;;0.00;;
21643;SDS011;10983;51.982;9.226;2023-10-08T04:56:56;0.00;;;0.00;;
21643;SDS011;10983;51.982;9.226;2023-10-08T04:59:25;0.00;;;0.00;;
21643;SDS011;10983;51.982;9.226;2023-10-08T05:04:45;0.00;;;0.00;;
21643;SDS011;10983;51.982;9.226;2023-10-08T05:07:23;0.00;;;0.00;;
21643;SDS011;10983;51.982;9.226;2023-10-08T05:10:05;0.00;;;0.00;;
21643;SDS011;10983;51.982;9.226;2023-10-08T05:12:58;0.00;;;0.00;;
21643;SDS011;10983;51.982;9.226;2023-10-08T05:15:41;0.00;;;0.00;;
21643;SDS011;10983;51.982;9.226;2023-10-08T05:18:28;0.00;;;0.00;;
21643;SDS011;10983;51.982;9.226;2023-10-08T05:21:26;0.00;;;0.00;;
21643;SDS011;10983;51.982;9.226;2023-10-08T05:24:00;0.00;;;0.00;;
21643;SDS011;10983;51.982;9.226;2023-10-08T05:26:39;0.00;;;0.00;;
21643;SDS011;10983;51.982;9.226;2023-10-08T05:29:25;0.00;;;0.00;;
21643;SDS011;10983;51.982;9.226;2023-10-08T05:32:15;0.00;;;0.00;;
21643;SDS011;10983;51.982;9.226;2023-10-08T05:35:09;0.00;;;0.00;;
21643;SDS011;10983;51.982;9.226;2023-10-08T05:37:55;0.00;;;0.00;;
21643;SDS011;10983;51.982;9.226;2023-10-08T05:40:39;0.10;;;0.10;;
21643;SDS011;10983;51.982;9.226;2023-10-08T05:43:26;0.20;;;0.20;;
21643;SDS011;10983;51.982;9.226;2023-10-08T05:46:15;0.10;;;0.10;;
21643;SDS011;10983;51.982;9.226;2023-10-08T05:49:00;0.00;;;0.00;;
21643;SDS011;10983;51.982;9.226;2023-10-08T05:51:28;0.00;;;0.00;;
21643;SDS011;10983;51.982;9.226;2023-10-08T05:54:13;0.00;;;0.00;;
21643;SDS011;10983;51.982;9.226;2023-10-08T05:57:03;1.08;;;0.57;;
21643;SDS011;10983;51.982;9.226;2023-10-08T05:59:33;0.00;;;0.00;;
21643;SDS011;10983;51.982;9.226;2023-10-08T06:02:23;0.00;;;0.00;;
21643;SDS011;10983;51.982;9.226;2023-10-08T06:04:56;0.00;;;0.00;;
21643;SDS011;10983;51.982;9.226;2023-10-08T06:07:47;0.52;;;0.52;;
21643;SDS011;10983;51.982;9.226;2023-10-08T06:10:17;0.00;;;0.00;;
21643;SDS011;10983;51.982;9.226;2023-10-08T06:13:08;0.00;;;0.00;;
21643;SDS011;10983;51.982;9.226;2023-10-08T06:15:36;0.00;;;0.00;;
21643;SDS011;10983;51.982;9.226;2023-10-08T06:18:10;0.00;;;0.00;;
21643;SDS011;10983;51.982;9.226;2023-10-08T06:20:39;0.00;;;0.00;;
21643;SDS011;10983;51.982;9.226;2023-10-08T06:23:10;0.00;;;0.00;;
21643;SDS011;10983;51.982;9.226;2023-10-08T06:25:41;0.00;;;0.00;;
21643;SDS011;10983;51.982;9.226;2023-10-08T06:28:12;0.00;;;0.00;;
21643;SDS011;10983;51.982;9.226;2023-10-08T06:30:41;0.00;;;0.00;;
21643;SDS011;10983;51.982;9.226;2023-10-08T06:33:12;0.00;;;0.00;;
21643;SDS011;10983;51.982;9.226;2023-10-08T06:35:41;0.00;;;0.00;;
21643;SDS011;10983;51.982;9.226;2023-10-08T06:38:11;0.00;;;0.00;;
21643;SDS011;10983;51.982;9.226;2023-10-08T06:40:42;0.00;;;0.00;;
21643;SDS011;10983;51.982;9.226;2023-10-08T06:43:09;0.00;;;0.00;;
21643;SDS011;10983;51.982;9.226;2023-10-08T06:45:43;0.00;;;0.00;;
21643;SDS011;10983;51.982;9.226;2023-10-08T06:48:13;0.00;;;0.00;;
21643;SDS011;10983;51.982;9.226;2023-10-08T06:53:14;0.00;;;0.00;;
21643;SDS011;10983;51.982;9.226;2023-10-08T06:55:46;0.00;;;0.00;;
21643;SDS011;10983;51.982;9.226;2023-10-08T06:58:14;0.00;;;0.00;;
21643;SDS011;10983;51.982;9.226;2023-10-08T07:00:44;0.00;;;0.00;;
21643;SDS011;10983;51.982;9.226;2023-10-08T07:03:16;0.00;;;0.00;;
21643;SDS011;10983;51.982;9.226;2023-10-08T07:05:45;0.00;;;0.00;;
21643;SDS011;10983;51.982;9.226;2023-10-08T07:08:24;0.00;;;0.00;;
21643;SDS011;10983;51.982;9.226;2023-10-08T07:10:55;0.00;;;0.00;;
21643;SDS011;10983;51.982;9.226;2023-10-08T07:13:31;0.00;;;0.00;;
21643;SDS011;10983;51.982;9.226;2023-10-08T07:15:58;0.00;;;0.00;;
21643;SDS011;10983;51.982;9.226;2023-10-08T07:18:30;0.00;;;0.00;;
21643;SDS011;10983;51.982;9.226;2023-10-08T07:21:00;0.00;;;0.00;;
21643;SDS011;10983;51.982;9.226;2023-10-08T07:23:29;0.00;;;0.00;;
21643;SDS011;10983;51.982;9.226;2023-10-08T07:26:02;0.00;;;0.00;;
21643;SDS011;10983;51.982;9.226;2023-10-08T07:28:37;0.00;;;0.00;;
21643;SDS011;10983;51.982;9.226;2023-10-08T07:31:12;0.00;;;0.00;;
21643;SDS011;10983;51.982;9.226;2023-10-08T07:33:41;0.00;;;0.00;;
21643;SDS011;10983;51.982;9.226;2023-10-08T07:36:09;0.00;;;0.00;;
21643;SDS011;10983;51.982;9.226;2023-10-08T07:38:40;0.00;;;0.00;;
21643;SDS011;10983;51.982;9.226;2023-10-08T07:41:12;0.00;;;0.00;;
21643;SDS011;10983;51.982;9.226;2023-10-08T07:43:41;0.00;;;0.00;;
21643;SDS011;10983;51.982;9.226;2023-10-08T07:46:09;0.00;;;0.00;;
21643;SDS011;10983;51.982;9.226;2023-10-08T07:48:36;0.00;;;0.00;;
21643;SDS011;10983;51.982;9.226;2023-10-08T07:51:09;0.00;;;0.00;;
21643;SDS011;10983;51.982;9.226;2023-10-08T07:53:36;0.00;;;0.00;;
21643;SDS011;10983;51.982;9.226;2023-10-08T07:56:05;0.00;;;0.00;;
21643;SDS011;10983;51.982;9.226;2023-10-08T07:58:35;0.00;;;0.00;;
21643;SDS011;10983;51.982;9.226;2023-10-08T08:01:03;0.00;;;0.00;;
21643;SDS011;10983;51.982;9.226;2023-10-08T08:03:33;0.00;;;0.00;;
21643;SDS011;10983;51.982;9.226;2023-10-08T08:06:03;0.00;;;0.00;;
21643;SDS011;10983;51.982;9.226;2023-10-08T08:08:33;0.00;;;0.00;;
21643;SDS011;10983;51.982;9.226;2023-10-08T08:11:02;0.00;;;0.00;;
21643;SDS011;10983;51.982;9.226;2023-10-08T08:13:33;0.00;;;0.00;;
21643;SDS011;10983;51.982;9.226;2023-10-08T08:16:03;0.00;;;0.00;;
21643;SDS011;10983;51.982;9.226;2023-10-08T08:18:42;0.20;;;0.20;;
21643;SDS011;10983;51.982;9.226;2023-10-08T08:21:10;0.00;;;0.00;;
21643;SDS011;10983;51.982;9.226;2023-10-08T08:23:42;0.00;;;0.00;;
21643;SDS011;10983;51.982;9.226;2023-10-08T08:26:16;0.00;;;0.00;;
21643;SDS011;10983;51.982;9.226;2023-10-08T08:28:55;0.00;;;0.00;;
21643;SDS011;10983;51.982;9.226;2023-10-08T08:31:26;0.00;;;0.00;;
21643;SDS011;10983;51.982;9.226;2023-10-08T08:33:58;0.00;;;0.00;;
21643;SDS011;10983;51.982;9.226;2023-10-08T08:36:28;0.00;;;0.00;;
21643;SDS011;10983;51.982;9.226;2023-10-08T08:38:58;0.95;;;0.95;;
21643;SDS011;10983;51.982;9.226;2023-10-08T08:41:25;0.00;;;0.00;;
21643;SDS011;10983;51.982;9.226;2023-10-08T08:43:54;0.00;;;0.00;;
21643;SDS011;10983;51.982;9.226;2023-10-08T08:46:27;0.00;;;0.00;;
21643;SDS011;10983;51.982;9.226;2023-10-08T08:48:57;0.00;;;0.00;;
21643;SDS011;10983;51.982;9.226;2023-10-08T08:51:30;0.08;;;0.08;;
21643;SDS011;10983;51.982;9.226;2023-10-08T08:53:58;0.00;;;0.00;;
21643;SDS011;10983;51.982;9.226;2023-10-08T08:56:27;0.00;;;0.00;;
21643;SDS011;10983;51.982;9.226;2023-10-08T08:58:58;0.00;;;0.00;;
21643;SDS011;10983;51.982;9.226;2023-10-08T09:01:27;0.00;;;0.00;;
21643;SDS011;10983;51.982;9.226;2023-10-08T09:03:59;0.13;;;0.13;;
21643;SDS011;10983;51.982;9.226;2023-10-08T09:06:32;0.00;;;0.00;;
21643;SDS011;10983;51.982;9.226;2023-10-08T09:09:00;0.00;;;0.00;;
21643;SDS011;10983;51.982;9.226;2023-10-08T09:11:48;0.20;;;0.20;;
21643;SDS011;10983;51.982;9.226;2023-10-08T09:14:20;0.00;;;0.00;;
21643;SDS011;10983;51.982;9.226;2023-10-08T09:16:49;0.63;;;0.63;;
21643;SDS011;10983;51.982;9.226;2023-10-08T09:19:18;0.00;;;0.00;;
21643;SDS011;10983;51.982;9.226;2023-10-08T09:21:59;0.35;;;0.35;;
21643;SDS011;10983;51.982;9.226;2023-10-08T09:24:30;0.00;;;0.00;;
21643;SDS011;10983;51.982;9.226;2023-10-08T09:26:59;0.00;;;0.00;;
21643;SDS011;10983;51.982;9.226;2023-10-08T09:29:31;0.00;;;0.00;;
21643;SDS011;10983;51.982;9.226;2023-10-08T09:31:59;0.00;;;0.00;;
21643;SDS011;10983;51.982;9.226;2023-10-08T09:34:27;0.00;;;0.00;;
21643;SDS011;10983;51.982;9.226;2023-10-08T09:36:56;0.00;;;0.00;;
21643;SDS011;10983;51.982;9.226;2023-10-08T09:39:26;0.32;;;0.32;;
21643;SDS011;10983;51.982;9.226;2023-10-08T09:41:55;0.00;;;0.00;;
21643;SDS011;10983;51.982;9.226;2023-10-08T09:44:24;0.00;;;0.00;;
21643;SDS011;10983;51.982;9.226;2023-10-08T09:46:54;0.10;;;0.10;;
21643;SDS011;10983;51.982;9.226;2023-10-08T09:49:30;0.10;;;0.08;;
21643;SDS011;10983;51.982;9.226;2023-10-08T09:52:00;0.00;;;0.00;;
21643;SDS011;10983;51.982;9.226;2023-10-08T09:54:30;0.13;;;0.10;;
21643;SDS011;10983;51.982;9.226;2023-10-08T09:57:03;0.00;;;0.00;;
21643;SDS011;10983;51.982;9.226;2023-10-08T09:59:33;5.57;;;1.23;;
21643;SDS011;10983;51.982;9.226;2023-10-08T10:02:03;0.35;;;0.35;;
21643;SDS011;10983;51.982;9.226;2023-10-08T10:04:35;0.20;;;0.20;;
21643;SDS011;10983;51.982;9.226;2023-10-08T10:07:09;0.00;;;0.00;;
21643;SDS011;10983;51.982;9.226;2023-10-08T10:09:39;0.20;;;0.13;;
21643;SDS011;10983;51.982;9.226;2023-10-08T10:12:11;0.00;;;0.00;;
21643;SDS011;10983;51.982;9.226;2023-10-08T10:14:42;0.00;;;0.00;;
21643;SDS011;10983;51.982;9.226;2023-10-08T10:17:14;0.00;;;0.00;;
21643;SDS011;10983;51.982;9.226;2023-10-08T10:20:05;0.00;;;0.00;;
21643;SDS011;10983;51.982;9.226;2023-10-08T10:22:39;0.00;;;0.00;;
21643;SDS011;10983;51.982;9.226;2023-10-08T10:25:08;0.00;;;0.00;;
21643;SDS011;10983;51.982;9.226;2023-10-08T10:27:51;0.00;;;0.00;;
21643;SDS011;10983;51.982;9.226;2023-10-08T10:30:50;1.00;;;0.25;;
21643;SDS011;10983;51.982;9.226;2023-10-08T10:33:20;0.00;;;0.00;;
21643;SDS011;10983;51.982;9.226;2023-10-08T10:35:49;0.30;;;0.20;;
21643;SDS011;10983;51.982;9.226;2023-10-08T10:38:18;0.00;;;0.00;;
21643;SDS011;10983;51.982;9.226;2023-10-08T10:40:48;5.18;;;1.75;;
21643;SDS011;10983;51.982;9.226;2023-10-08T10:43:23;0.10;;;0.10;;
21643;SDS011;10983;51.982;9.226;2023-10-08T10:45:58;0.00;;;0.00;;
21643;SDS011;10983;51.982;9.226;2023-10-08T10:48:47;0.00;;;0.00;;
21643;SDS011;10983;51.982;9.226;2023-10-08T10:51:23;0.00;;;0.00;;
21643;SDS011;10983;51.982;9.226;2023-10-08T10:53:51;0.45;;;0.40;;
21643;SDS011;10983;51.982;9.226;2023-10-08T10:56:24;0.00;;;0.00;;
21643;SDS011;10983;51.982;9.226;2023-10-08T10:58:58;0.00;;;0.00;;
21643;SDS011;10983;51.982;9.226;2023-10-08T11:01:26;0.17;;;0.17;;
21643;SDS011;10983;51.982;9.226;2023-10-08T11:03:57;0.00;;;0.00;;
21643;SDS011;10983;51.982;9.226;2023-10-08T11:06:25;0.40;;;0.35;;
21643;SDS011;10983;51.982;9.226;2023-10-08T11:08:53;0.00;;;0.00;;
21643;SDS011;10983;51.982;9.226;2023-10-08T11:11:25;0.00;;;0.00;;
21643;SDS011;10983;51.982;9.226;2023-10-08T11:13:55;0.05;;;0.05;;
21643;SDS011;10983;51.982;9.226;2023-10-08T11:16:27;0.00;;;0.00;;
21643;SDS011;10983;51.982;9.226;2023-10-08T11:18:59;0.00;;;0.00;;
21643;SDS011;10983;51.982;9.226;2023-10-08T11:21:33;1.00;;;0.30;;
21643;SDS011;10983;51.982;9.226;2023-10-08T11:24:26;0.00;;;0.00;;
21643;SDS011;10983;51.982;9.226;2023-10-08T11:26:54;1.20;;;0.20;;
21643;SDS011;10983;51.982;9.226;2023-10-08T11:29:32;2.50;;;0.80;;
21643;SDS011;10983;51.982;9.226;2023-10-08T11:32:00;0.20;;;0.20;;
21643;SDS011;10983;51.982;9.226;2023-10-08T11:34:32;0.40;;;0.30;;
21643;SDS011;10983;51.982;9.226;2023-10-08T11:37:05;0.30;;;0.30;;
21643;SDS011;10983;51.982;9.226;2023-10-08T11:39:46;0.00;;;0.00;;
21643;SDS011;10983;51.982;9.226;2023-10-08T11:42:14;0.20;;;0.20;;
21643;SDS011;10983;51.982;9.226;2023-10-08T11:45:10;0.00;;;0.00;;
21643;SDS011;10983;51.982;9.226;2023-10-08T11:47:45;0.00;;;0.00;;
21643;SDS011;10983;51.982;9.226;2023-10-08T11:50:16;0.10;;;0.10;;
21643;SDS011;10983;51.982;9.226;2023-10-08T11:52:46;0.00;;;0.00;;
21643;SDS011;10983;51.982;9.226;2023-10-08T11:55:13;0.70;;;0.10;;
21643;SDS011;10983;51.982;9.226;2023-10-08T11:57:45;0.00;;;0.00;;
21643;SDS011;10983;51.982;9.226;2023-10-08T12:00:15;0.00;;;0.00;;
21643;SDS011;10983;51.982;9.226;2023-10-08T12:02:49;0.68;;;0.45;;
21643;SDS011;10983;51.982;9.226;2023-10-08T12:05:20;0.60;;;0.10;;
21643;SDS011;10983;51.982;9.226;2023-10-08T12:07:50;0.70;;;0.60;;
21643;SDS011;10983;51.982;9.226;2023-10-08T12:10:19;0.00;;;0.00;;
21643;SDS011;10983;51.982;9.226;2023-10-08T12:12:49;0.00;;;0.00;;
21643;SDS011;10983;51.982;9.226;2023-10-08T12:15:18;0.00;;;0.00;;
21643;SDS011;10983;51.982;9.226;2023-10-08T12:17:47;0.00;;;0.00;;
21643;SDS011;10983;51.982;9.226;2023-10-08T12:20:36;0.80;;;0.00;;
21643;SDS011;10983;51.982;9.226;2023-10-08T12:23:05;0.30;;;0.30;;
21643;SDS011;10983;51.982;9.226;2023-10-08T12:25:36;36.80;;;4.50;;
21643;SDS011;10983;51.982;9.226;2023-10-08T12:28:04;0.00;;;0.00;;
21643;SDS011;10983;51.982;9.226;2023-10-08T12:30:32;0.28;;;0.10;;
21643;SDS011;10983;51.982;9.226;2023-10-08T12:33:07;2.30;;;1.70;;
21643;SDS011;10983;51.982;9.226;2023-10-08T12:35:40;0.43;;;0.43;;
21643;SDS011;10983;51.982;9.226;2023-10-08T12:38:09;0.10;;;0.10;;
21643;SDS011;10983;51.982;9.226;2023-10-08T12:40:36;0.57;;;0.43;;
21643;SDS011;10983;51.982;9.226;2023-10-08T12:43:18;0.10;;;0.10;;
21643;SDS011;10983;51.982;9.226;2023-10-08T12:45:46;0.00;;;0.00;;
21643;SDS011;10983;51.982;9.226;2023-10-08T12:48:19;0.50;;;0.40;;
21643;SDS011;10983;51.982;9.226;2023-10-08T12:50:51;0.43;;;0.20;;
21643;SDS011;10983;51.982;9.226;2023-10-08T12:53:24;0.60;;;0.60;;
21643;SDS011;10983;51.982;9.226;2023-10-08T12:56:03;8.30;;;0.80;;
21643;SDS011;10983;51.982;9.226;2023-10-08T12:58:33;0.10;;;0.10;;
21643;SDS011;10983;51.982;9.226;2023-10-08T13:01:08;0.10;;;0.10;;
21643;SDS011;10983;51.982;9.226;2023-10-08T13:03:36;0.00;;;0.00;;
21643;SDS011;10983;51.982;9.226;2023-10-08T13:06:09;1.40;;;0.70;;
21643;SDS011;10983;51.982;9.226;2023-10-08T13:08:41;0.05;;;0.03;;
21643;SDS011;10983;51.982;9.226;2023-10-08T13:11:08;0.30;;;0.30;;
21643;SDS011;10983;51.982;9.226;2023-10-08T13:13:37;0.00;;;0.00;;
21643;SDS011;10983;51.982;9.226;2023-10-08T13:16:04;0.30;;;0.30;;
21643;SDS011;10983;51.982;9.226;2023-10-08T13:18:34;0.00;;;0.00;;
21643;SDS011;10983;51.982;9.226;2023-10-08T13:21:03;0.00;;;0.00;;
21643;SDS011;10983;51.982;9.226;2023-10-08T13:23:34;0.00;;;0.00;;
21643;SDS011;10983;51.982;9.226;2023-10-08T13:26:02;0.40;;;0.40;;
21643;SDS011;10983;51.982;9.226;2023-10-08T13:28:33;2.50;;;0.10;;
21643;SDS011;10983;51.982;9.226;2023-10-08T13:31:01;0.10;;;0.10;;
21643;SDS011;10983;51.982;9.226;2023-10-08T13:33:36;0.00;;;0.00;;
21643;SDS011;10983;51.982;9.226;2023-10-08T13:36:09;0.00;;;0.00;;
21643;SDS011;10983;51.982;9.226;2023-10-08T13:38:46;0.00;;;0.00;;
21643;SDS011;10983;51.982;9.226;2023-10-08T13:41:14;0.00;;;0.00;;
21643;SDS011;10983;51.982;9.226;2023-10-08T13:43:42;0.00;;;0.00;;
21643;SDS011;10983;51.982;9.226;2023-10-08T13:46:12;0.03;;;0.03;;
21643;SDS011;10983;51.982;9.226;2023-10-08T13:48:42;0.00;;;0.00;;
21643;SDS011;10983;51.982;9.226;2023-10-08T13:51:15;0.00;;;0.00;;
21643;SDS011;10983;51.982;9.226;2023-10-08T13:53:49;0.00;;;0.00;;
21643;SDS011;10983;51.982;9.226;2023-10-08T13:56:19;0.10;;;0.10;;
21643;SDS011;10983;51.982;9.226;2023-10-08T13:58:52;0.00;;;0.00;;
21643;SDS011;10983;51.982;9.226;2023-10-08T14:01:29;0.00;;;0.00;;
21643;SDS011;10983;51.982;9.226;2023-10-08T14:04:00;0.10;;;0.10;;
21643;SDS011;10983;51.982;9.226;2023-10-08T14:06:32;0.43;;;0.43;;
21643;SDS011;10983;51.982;9.226;2023-10-08T14:09:02;0.30;;;0.30;;
21643;SDS011;10983;51.982;9.226;2023-10-08T14:11:34;0.90;;;0.50;;
21643;SDS011;10983;51.982;9.226;2023-10-08T14:14:02;0.40;;;0.40;;
21643;SDS011;10983;51.982;9.226;2023-10-08T14:16:33;0.28;;;0.28;;
21643;SDS011;10983;51.982;9.226;2023-10-08T14:19:01;0.00;;;0.00;;
21643;SDS011;10983;51.982;9.226;2023-10-08T14:21:31;1.70;;;0.40;;
21643;SDS011;10983;51.982;9.226;2023-10-08T14:24:06;0.70;;;0.50;;
21643;SDS011;10983;51.982;9.226;2023-10-08T14:26:41;0.00;;;0.00;;
21643;SDS011;10983;51.982;9.226;2023-10-08T14:29:09;0.10;;;0.10;;
21643;SDS011;10983;51.982;9.226;2023-10-08T14:31:41;0.00;;;0.00;;
21643;SDS011;10983;51.982;9.226;2023-10-08T14:34:10;0.00;;;0.00;;
21643;SDS011;10983;51.982;9.226;2023-10-08T14:36:55;0.00;;;0.00;;
21643;SDS011;10983;51.982;9.226;2023-10-08T14:39:42;0.00;;;0.00;;
21643;SDS011;10983;51.982;9.226;2023-10-08T14:42:28;0.20;;;0.00;;
21643;SDS011;10983;51.982;9.226;2023-10-08T14:45:13;0.10;;;0.10;;
21643;SDS011;10983;51.982;9.226;2023-10-08T14:47:45;0.30;;;0.30;;
21643;SDS011;10983;51.982;9.226;2023-10-08T14:50:13;0.20;;;0.20;;
21643;SDS011;10983;51.982;9.226;2023-10-08T14:52:43;1.00;;;0.10;;
21643;SDS011;10983;51.982;9.226;2023-10-08T14:55:12;0.00;;;0.00;;
21643;SDS011;10983;51.982;9.226;2023-10-08T14:57:39;0.00;;;0.00;;
21643;SDS011;10983;51.982;9.226;2023-10-08T15:00:08;0.50;;;0.40;;
21643;SDS011;10983;51.982;9.226;2023-10-08T15:02:37;0.00;;;0.00;;
21643;SDS011;10983;51.982;9.226;2023-10-08T15:05:05;0.25;;;0.15;;
21643;SDS011;10983;51.982;9.226;2023-10-08T15:07:33;0.00;;;0.00;;
21643;SDS011;10983;51.982;9.226;2023-10-08T15:10:02;0.10;;;0.10;;
21643;SDS011;10983;51.982;9.226;2023-10-08T15:12:31;0.00;;;0.00;;
21643;SDS011;10983;51.982;9.226;2023-10-08T15:15:01;0.00;;;0.00;;
21643;SDS011;10983;51.982;9.226;2023-10-08T15:17:39;0.00;;;0.00;;
21643;SDS011;10983;51.982;9.226;2023-10-08T15:20:08;0.20;;;0.20;;
21643;SDS011;10983;51.982;9.226;2023-10-08T15:22:40;0.00;;;0.00;;
21643;SDS011;10983;51.982;9.226;2023-10-08T15:25:09;0.40;;;0.40;;